Byron, Oklahoma
Current Conditions -  °F | °C
As of 9:10 PM on Tuesday 25 Nov 2014 (Local Time) from KAVK Reporting Station
Few Clouds Few Clouds  
Wind Chill:   Ceiling: Unl
Heat Index:   Visibility: 10mi
Dew Point: -3°   Wind: 13mph
Humidity: 61%   Direction: 180°S
Pressure: 29.98"   Gusts: NA
Location:  36.916°N, 98.4369°W
Report Text: KAVK 260310Z AUTO 18011KT 10SM FEW042 04/M03 A2998 RMK AO2
Loading
Personal Weather Stations






























Interactive Weather Map New forecast layout! Learn more

10-Day Weather Forecast

Advertisements
Track Severe Weather on mobile